sensor_id;sensor_type;location;lat;lon;timestamp;pressure;altitude;pressure_sealevel;temperature;humidity
75231;BME280;63814;50.118;8.714;2022-10-26T00:01:15;100304.63;;;11.77;81.73
75231;BME280;63814;50.118;8.714;2022-10-26T00:03:44;100309.16;;;11.75;81.67
75231;BME280;63814;50.118;8.714;2022-10-26T00:06:13;100303.81;;;11.77;81.63
75231;BME280;63814;50.118;8.714;2022-10-26T00:08:39;100297.63;;;11.78;81.65
75231;BME280;63814;50.118;8.714;2022-10-26T00:11:07;100298.47;;;11.78;81.70
75231;BME280;63814;50.118;8.714;2022-10-26T00:13:35;100288.78;;;11.79;81.49
75231;BME280;63814;50.118;8.714;2022-10-26T00:16:07;100299.38;;;11.77;81.69
75231;BME280;63814;50.118;8.714;2022-10-26T00:18:34;100293.47;;;11.73;81.03
75231;BME280;63814;50.118;8.714;2022-10-26T00:21:01;100289.81;;;11.76;81.42
75231;BME280;63814;50.118;8.714;2022-10-26T00:23:28;100289.81;;;11.76;81.41
75231;BME280;63814;50.118;8.714;2022-10-26T00:25:56;100291.50;;;11.77;81.32
75231;BME280;63814;50.118;8.714;2022-10-26T00:28:22;100286.44;;;11.74;81.23
75231;BME280;63814;50.118;8.714;2022-10-26T00:30:50;100295.84;;;11.78;80.98
75231;BME280;63814;50.118;8.714;2022-10-26T00:33:18;100299.22;;;11.80;81.00
75231;BME280;63814;50.118;8.714;2022-10-26T00:35:46;100286.44;;;11.74;81.10
75231;BME280;63814;50.118;8.714;2022-10-26T00:38:13;100297.53;;;11.79;81.09
75231;BME280;63814;50.118;8.714;2022-10-26T00:40:39;100294.91;;;11.79;80.99
75231;BME280;63814;50.118;8.714;2022-10-26T00:43:12;100293.38;;;11.75;80.86
75231;BME280;63814;50.118;8.714;2022-10-26T00:45:40;100307.47;;;11.74;81.28
75231;BME280;63814;50.118;8.714;2022-10-26T00:48:13;100294.25;;;11.76;80.86
75231;BME280;63814;50.118;8.714;2022-10-26T00:50:45;100296.22;;;11.72;81.31
75231;BME280;63814;50.118;8.714;2022-10-26T00:53:13;100297.81;;;11.75;81.33
75231;BME280;63814;50.118;8.714;2022-10-26T00:55:45;100296.09;;;11.73;81.06
75231;BME280;63814;50.118;8.714;2022-10-26T00:58:12;100293.38;;;11.75;80.83
75231;BME280;63814;50.118;8.714;2022-10-26T01:00:39;100255.53;;;11.50;80.97
75231;BME280;63814;50.118;8.714;2022-10-26T01:03:09;100288.50;;;11.69;81.23
75231;BME280;63814;50.118;8.714;2022-10-26T01:05:39;100295.94;;;11.77;81.32
75231;BME280;63814;50.118;8.714;2022-10-26T01:08:06;100296.75;;;11.77;81.33
75231;BME280;63814;50.118;8.714;2022-10-26T01:10:35;100294.34;;;11.74;81.08
75231;BME280;63814;50.118;8.714;2022-10-26T01:13:02;100274.34;;;11.71;80.90
75231;BME280;63814;50.118;8.714;2022-10-26T01:15:33;100284.56;;;11.76;80.97
75231;BME280;63814;50.118;8.714;2022-10-26T01:18:09;100285.44;;;11.77;80.87
75231;BME280;63814;50.118;8.714;2022-10-26T01:21:03;100277.63;;;11.75;80.92
75231;BME280;63814;50.118;8.714;2022-10-26T01:23:36;100274.44;;;11.70;81.15
75231;BME280;63814;50.118;8.714;2022-10-26T01:29:29;100277.47;;;11.78;80.68
75231;BME280;63814;50.118;8.714;2022-10-26T01:32:04;100267.31;;;11.72;81.05
75231;BME280;63814;50.118;8.714;2022-10-26T01:34:35;100272.19;;;11.78;80.73
75231;BME280;63814;50.118;8.714;2022-10-26T01:37:07;100272.38;;;11.75;80.85
75231;BME280;63814;50.118;8.714;2022-10-26T01:39:38;100274.25;;;11.73;81.18
75231;BME280;63814;50.118;8.714;2022-10-26T01:42:08;100272.47;;;11.73;81.07
75231;BME280;63814;50.118;8.714;2022-10-26T01:44:38;100271.63;;;11.73;80.48
75231;BME280;63814;50.118;8.714;2022-10-26T01:47:10;100267.97;;;11.76;81.20
75231;BME280;63814;50.118;8.714;2022-10-26T01:49:40;100274.06;;;11.76;81.31
75231;BME280;63814;50.118;8.714;2022-10-26T01:52:09;100261.13;;;11.73;81.00
75231;BME280;63814;50.118;8.714;2022-10-26T01:54:35;100262.81;;;11.74;80.99
75231;BME280;63814;50.118;8.714;2022-10-26T01:57:04;100262.72;;;11.76;80.56
75231;BME280;63814;50.118;8.714;2022-10-26T01:59:42;100275.94;;;11.74;80.75
75231;BME280;63814;50.118;8.714;2022-10-26T02:05:30;100265.91;;;11.66;80.63
75231;BME280;63814;50.118;8.714;2022-10-26T02:08:06;100270.97;;;11.69;80.60
75231;BME280;63814;50.118;8.714;2022-10-26T02:10:55;100269.94;;;11.72;80.58
75231;BME280;63814;50.118;8.714;2022-10-26T02:13:30;100256.16;;;11.68;80.70
75231;BME280;63814;50.118;8.714;2022-10-26T02:16:03;100258.59;;;11.71;81.01
75231;BME280;63814;50.118;8.714;2022-10-26T02:18:34;100258.59;;;11.71;80.35
75231;BME280;63814;50.118;8.714;2022-10-26T02:21:06;100256.03;;;11.70;80.48
75231;BME280;63814;50.118;8.714;2022-10-26T02:23:37;100247.06;;;11.59;80.75
75231;BME280;63814;50.118;8.714;2022-10-26T02:26:07;100252.13;;;11.63;80.77
75231;BME280;63814;50.118;8.714;2022-10-26T02:28:37;100250.13;;;11.66;80.67
75231;BME280;63814;50.118;8.714;2022-10-26T02:31:06;100251.00;;;11.67;80.79
75231;BME280;63814;50.118;8.714;2022-10-26T02:33:38;100248.56;;;11.64;80.94
75231;BME280;63814;50.118;8.714;2022-10-26T02:36:07;100253.81;;;11.64;81.16
75231;BME280;63814;50.118;8.714;2022-10-26T02:38:37;100253.72;;;11.65;80.83
75231;BME280;63814;50.118;8.714;2022-10-26T02:41:06;100243.22;;;11.65;81.04
75231;BME280;63814;50.118;8.714;2022-10-26T02:43:36;100239.63;;;11.66;80.57
75231;BME280;63814;50.118;8.714;2022-10-26T02:46:08;100237.78;;;11.68;80.92
75231;BME280;63814;50.118;8.714;2022-10-26T02:48:37;100241.34;;;11.67;81.03
75231;BME280;63814;50.118;8.714;2022-10-26T02:51:09;100230.28;;;11.62;80.78
75231;BME280;63814;50.118;8.714;2022-10-26T02:53:44;100231.31;;;11.59;81.48
75231;BME280;63814;50.118;8.714;2022-10-26T02:56:16;100243.13;;;11.67;81.28
75231;BME280;63814;50.118;8.714;2022-10-26T02:58:46;100242.47;;;11.63;80.59
75231;BME280;63814;50.118;8.714;2022-10-26T03:01:14;100234.66;;;11.62;81.06
75231;BME280;63814;50.118;8.714;2022-10-26T03:03:42;100235.03;;;11.55;82.06
75231;BME280;63814;50.118;8.714;2022-10-26T03:06:09;100229.63;;;11.58;82.13
75231;BME280;63814;50.118;8.714;2022-10-26T03:08:35;100173.75;;;11.27;82.27
75231;BME280;63814;50.118;8.714;2022-10-26T03:11:02;100221.91;;;11.55;82.66
75231;BME280;63814;50.118;8.714;2022-10-26T03:13:28;100192.09;;;11.42;82.97
75231;BME280;63814;50.118;8.714;2022-10-26T03:15:55;100223.13;;;11.64;81.94
75231;BME280;63814;50.118;8.714;2022-10-26T03:18:22;100219.78;;;11.62;82.18
75231;BME280;63814;50.118;8.714;2022-10-26T03:20:50;100227.66;;;11.62;82.85
75231;BME280;63814;50.118;8.714;2022-10-26T03:23:16;100226.78;;;11.62;82.47
75231;BME280;63814;50.118;8.714;2022-10-26T03:25:43;100239.84;;;11.63;83.05
75231;BME280;63814;50.118;8.714;2022-10-26T03:28:09;100241.53;;;11.64;82.97
75231;BME280;63814;50.118;8.714;2022-10-26T03:30:36;100231.97;;;11.63;82.78
75231;BME280;63814;50.118;8.714;2022-10-26T03:33:02;100237.00;;;11.66;83.02
75231;BME280;63814;50.118;8.714;2022-10-26T03:35:29;100222.41;;;11.62;83.36
75231;BME280;63814;50.118;8.714;2022-10-26T03:37:56;100234.50;;;11.65;82.91
75231;BME280;63814;50.118;8.714;2022-10-26T03:40:23;100239.19;;;11.59;83.48
75231;BME280;63814;50.118;8.714;2022-10-26T03:42:49;100250.25;;;11.65;83.43
75231;BME280;63814;50.118;8.714;2022-10-26T03:45:16;100245.19;;;11.62;83.46
75231;BME280;63814;50.118;8.714;2022-10-26T03:47:43;100243.50;;;11.61;83.75
75231;BME280;63814;50.118;8.714;2022-10-26T03:50:10;100238.44;;;11.57;83.76
75231;BME280;63814;50.118;8.714;2022-10-26T03:52:37;100241.16;;;11.56;83.99
75231;BME280;63814;50.118;8.714;2022-10-26T03:55:07;100247.25;;;11.56;84.01
75231;BME280;63814;50.118;8.714;2022-10-26T03:57:34;100242.94;;;11.55;84.12
75231;BME280;63814;50.118;8.714;2022-10-26T04:00:00;100239.28;;;11.58;84.24
75231;BME280;63814;50.118;8.714;2022-10-26T04:02:27;100238.25;;;11.61;84.11
75231;BME280;63814;50.118;8.714;2022-10-26T04:04:54;100241.72;;;11.61;84.07
75231;BME280;63814;50.118;8.714;2022-10-26T04:07:20;100237.41;;;11.60;84.04
75231;BME280;63814;50.118;8.714;2022-10-26T04:09:46;100240.13;;;11.58;84.73
75231;BME280;63814;50.118;8.714;2022-10-26T04:12:14;100229.25;;;11.50;84.43
75231;BME280;63814;50.118;8.714;2022-10-26T04:14:41;100219.50;;;11.52;84.61
75231;BME280;63814;50.118;8.714;2022-10-26T04:17:07;100220.34;;;11.53;84.99
75231;BME280;63814;50.118;8.714;2022-10-26T04:19:34;100220.81;;;11.45;84.64
75231;BME280;63814;50.118;8.714;2022-10-26T04:22:00;100219.88;;;11.46;84.70
75231;BME280;63814;50.118;8.714;2022-10-26T04:24:27;100231.50;;;11.42;85.00
75231;BME280;63814;50.118;8.714;2022-10-26T04:26:53;100237.69;;;11.41;84.90
75231;BME280;63814;50.118;8.714;2022-10-26T04:29:21;100232.72;;;11.36;84.57
75231;BME280;63814;50.118;8.714;2022-10-26T04:31:47;100233.66;;;11.35;84.48
75231;BME280;63814;50.118;8.714;2022-10-26T04:34:14;100243.31;;;11.35;85.29
75231;BME280;63814;50.118;8.714;2022-10-26T04:36:40;100239.75;;;11.36;84.42
75231;BME280;63814;50.118;8.714;2022-10-26T04:39:07;100239.75;;;11.36;84.79
75231;BME280;63814;50.118;8.714;2022-10-26T04:41:33;100235.41;;;11.35;84.98
75231;BME280;63814;50.118;8.714;2022-10-26T04:44:00;100237.97;;;11.36;84.93
75231;BME280;63814;50.118;8.714;2022-10-26T04:46:27;100240.50;;;11.38;85.28
75231;BME280;63814;50.118;8.714;2022-10-26T04:48:54;100245.19;;;11.32;85.38
75231;BME280;63814;50.118;8.714;2022-10-26T04:51:20;100240.00;;;11.31;85.30
75231;BME280;63814;50.118;8.714;2022-10-26T04:53:47;100233.00;;;11.31;84.86
75231;BME280;63814;50.118;8.714;2022-10-26T04:56:13;100228.50;;;11.34;84.68
75231;BME280;63814;50.118;8.714;2022-10-26T04:58:40;100225.97;;;11.32;84.70
75231;BME280;63814;50.118;8.714;2022-10-26T05:01:06;100226.88;;;11.31;85.32
75231;BME280;63814;50.118;8.714;2022-10-26T05:03:34;100234.69;;;11.32;84.40
75231;BME280;63814;50.118;8.714;2022-10-26T05:06:00;100232.25;;;11.29;85.42
75231;BME280;63814;50.118;8.714;2022-10-26T05:08:30;100233.38;;;11.25;85.07
75231;BME280;63814;50.118;8.714;2022-10-26T05:10:57;100215.84;;;11.26;84.69
75231;BME280;63814;50.118;8.714;2022-10-26T05:13:23;100207.31;;;11.22;84.83
75231;BME280;63814;50.118;8.714;2022-10-26T05:15:51;100223.22;;;11.19;85.38
75231;BME280;63814;50.118;8.714;2022-10-26T05:18:18;100217.03;;;11.20;84.72
75231;BME280;63814;50.118;8.714;2022-10-26T05:20:46;100220.59;;;11.19;84.59
75231;BME280;63814;50.118;8.714;2022-10-26T05:23:14;100226.78;;;11.18;85.02
75231;BME280;63814;50.118;8.714;2022-10-26T05:25:43;100227.75;;;11.17;85.33
75231;BME280;63814;50.118;8.714;2022-10-26T05:28:11;100221.56;;;11.18;84.84
75231;BME280;63814;50.118;8.714;2022-10-26T05:30:39;100230.16;;;11.20;85.23
75231;BME280;63814;50.118;8.714;2022-10-26T05:33:05;100231.09;;;11.19;85.27
75231;BME280;63814;50.118;8.714;2022-10-26T05:35:32;100227.53;;;11.20;85.42
75231;BME280;63814;50.118;8.714;2022-10-26T05:38:05;100216.22;;;11.20;85.12
75231;BME280;63814;50.118;8.714;2022-10-26T05:40:32;100228.47;;;11.19;85.76
75231;BME280;63814;50.118;8.714;2022-10-26T05:42:59;100229.50;;;11.16;85.18
75231;BME280;63814;50.118;8.714;2022-10-26T05:45:26;100226.22;;;11.13;85.20
75231;BME280;63814;50.118;8.714;2022-10-26T05:47:53;100245.00;;;11.21;85.26
75231;BME280;63814;50.118;8.714;2022-10-26T05:50:19;100244.06;;;11.22;85.16
75231;BME280;63814;50.118;8.714;2022-10-26T05:52:46;100253.41;;;11.26;85.08
75231;BME280;63814;50.118;8.714;2022-10-26T05:55:16;100244.81;;;11.24;85.07
75231;BME280;63814;50.118;8.714;2022-10-26T05:57:43;100244.53;;;11.29;85.26
75231;BME280;63814;50.118;8.714;2022-10-26T06:00:15;100252.41;;;11.29;85.26
75231;BME280;63814;50.118;8.714;2022-10-26T06:02:50;100259.25;;;11.31;84.91
75231;BME280;63814;50.118;8.714;2022-10-26T06:05:25;100238.63;;;11.25;84.80
75231;BME280;63814;50.118;8.714;2022-10-26T06:07:52;100250.44;;;11.32;85.25
75231;BME280;63814;50.118;8.714;2022-10-26T06:10:21;100252.13;;;11.34;84.74
75231;BME280;63814;50.118;8.714;2022-10-26T06:12:48;100259.16;;;11.33;84.90
75231;BME280;63814;50.118;8.714;2022-10-26T06:15:18;100256.44;;;11.35;85.04
75231;BME280;63814;50.118;8.714;2022-10-26T06:17:53;100256.16;;;11.39;85.05
75231;BME280;63814;50.118;8.714;2022-10-26T06:20:31;100251.75;;;11.40;84.26
75231;BME280;63814;50.118;8.714;2022-10-26T06:23:14;100246.41;;;11.41;85.11
75231;BME280;63814;50.118;8.714;2022-10-26T06:25:52;100260.19;;;11.45;84.38
75231;BME280;63814;50.118;8.714;2022-10-26T06:28:30;100264.50;;;11.46;84.04
75231;BME280;63814;50.118;8.714;2022-10-26T06:30:59;100271.28;;;11.50;84.19
75231;BME280;63814;50.118;8.714;2022-10-26T06:33:26;100282.97;;;11.59;83.88
75231;BME280;63814;50.118;8.714;2022-10-26T06:36:01;100272.38;;;11.61;83.13
75231;BME280;63814;50.118;8.714;2022-10-26T06:38:33;100283.75;;;11.76;83.02
75231;BME280;63814;50.118;8.714;2022-10-26T06:41:02;100283.09;;;11.72;82.95
75231;BME280;63814;50.118;8.714;2022-10-26T06:43:31;100280.91;;;11.64;83.33
75231;BME280;63814;50.118;8.714;2022-10-26T06:46:05;100305.03;;;11.71;82.70
75231;BME280;63814;50.118;8.714;2022-10-26T06:48:44;100295.84;;;11.64;83.11
75231;BME280;63814;50.118;8.714;2022-10-26T06:51:14;100307.38;;;11.76;82.86
75231;BME280;63814;50.118;8.714;2022-10-26T06:53:57;100315.34;;;11.74;82.59
75231;BME280;63814;50.118;8.714;2022-10-26T06:56:26;100322.19;;;11.77;82.90
75231;BME280;63814;50.118;8.714;2022-10-26T06:58:55;100316.75;;;11.80;82.69
75231;BME280;63814;50.118;8.714;2022-10-26T07:01:27;100324.16;;;11.88;82.69
75231;BME280;63814;50.118;8.714;2022-10-26T07:03:54;100332.88;;;11.88;82.57
75231;BME280;63814;50.118;8.714;2022-10-26T07:06:20;100336.38;;;11.89;82.45
75231;BME280;63814;50.118;8.714;2022-10-26T07:08:47;100338.91;;;11.90;82.43
75231;BME280;63814;50.118;8.714;2022-10-26T07:11:13;100325.78;;;11.90;82.46
75231;BME280;63814;50.118;8.714;2022-10-26T07:13:41;100328.84;;;11.97;82.84
75231;BME280;63814;50.118;8.714;2022-10-26T07:16:07;100323.78;;;11.94;82.43
75231;BME280;63814;50.118;8.714;2022-10-26T07:18:34;100332.13;;;12.00;82.68
75231;BME280;63814;50.118;8.714;2022-10-26T07:21:00;100340.69;;;12.04;82.54
75231;BME280;63814;50.118;8.714;2022-10-26T07:23:27;100330.34;;;12.01;82.69
75231;BME280;63814;50.118;8.714;2022-10-26T07:25:53;100339.00;;;12.03;82.84
75231;BME280;63814;50.118;8.714;2022-10-26T07:28:19;100332.81;;;12.04;82.75
75231;BME280;63814;50.118;8.714;2022-10-26T07:30:47;100335.34;;;12.06;82.77
75231;BME280;63814;50.118;8.714;2022-10-26T07:33:14;100337.13;;;12.05;82.15
75231;BME280;63814;50.118;8.714;2022-10-26T07:35:40;100335.16;;;12.09;81.89
75231;BME280;63814;50.118;8.714;2022-10-26T07:38:07;100344.06;;;12.06;82.39
75231;BME280;63814;50.118;8.714;2022-10-26T07:40:35;100243.69;;;11.43;83.04
75231;BME280;63814;50.118;8.714;2022-10-26T07:43:02;100353.25;;;12.13;82.64
75231;BME280;63814;50.118;8.714;2022-10-26T07:45:29;100367.91;;;12.18;82.79
75231;BME280;63814;50.118;8.714;2022-10-26T07:47:57;100366.22;;;12.17;82.46
75231;BME280;63814;50.118;8.714;2022-10-26T07:50:23;100373.16;;;12.18;82.29
75231;BME280;63814;50.118;8.714;2022-10-26T07:52:50;100388.56;;;12.24;81.63
75231;BME280;63814;50.118;8.714;2022-10-26T07:55:16;100394.56;;;12.26;82.00
75231;BME280;63814;50.118;8.714;2022-10-26T07:57:44;100348.50;;;12.06;81.74
75231;BME280;63814;50.118;8.714;2022-10-26T08:00:12;100389.19;;;12.42;81.63
75231;BME280;63814;50.118;8.714;2022-10-26T08:02:38;100381.75;;;12.49;81.31
75231;BME280;63814;50.118;8.714;2022-10-26T08:05:07;100379.19;;;12.62;81.07
75231;BME280;63814;50.118;8.714;2022-10-26T08:07:39;100381.31;;;12.70;81.13
75231;BME280;63814;50.118;8.714;2022-10-26T08:10:06;100380.00;;;12.77;80.25
75231;BME280;63814;50.118;8.714;2022-10-26T08:12:32;100333.84;;;12.58;80.71
75231;BME280;63814;50.118;8.714;2022-10-26T08:14:59;100378.91;;;12.94;80.23
75231;BME280;63814;50.118;8.714;2022-10-26T08:17:27;100382.81;;;13.01;79.68
75231;BME280;63814;50.118;8.714;2022-10-26T08:19:53;100387.03;;;13.04;79.53
75231;BME280;63814;50.118;8.714;2022-10-26T08:22:21;100384.75;;;13.12;78.99
75231;BME280;63814;50.118;8.714;2022-10-26T08:24:48;100382.44;;;13.20;79.14
75231;BME280;63814;50.118;8.714;2022-10-26T08:27:14;100386.91;;;13.33;78.63
75231;BME280;63814;50.118;8.714;2022-10-26T08:29:41;100389.47;;;13.47;78.21
75231;BME280;63814;50.118;8.714;2022-10-26T08:32:08;100384.44;;;13.70;77.50
75231;BME280;63814;50.118;8.714;2022-10-26T08:34:34;100379.81;;;13.87;76.83
75231;BME280;63814;50.118;8.714;2022-10-26T08:37:01;100374.91;;;14.07;76.54
75231;BME280;63814;50.118;8.714;2022-10-26T08:39:29;100383.03;;;14.29;75.45
75231;BME280;63814;50.118;8.714;2022-10-26T08:42:00;100384.47;;;14.34;74.58
75231;BME280;63814;50.118;8.714;2022-10-26T08:44:30;100372.19;;;14.58;74.05
75231;BME280;63814;50.118;8.714;2022-10-26T08:47:03;100365.72;;;14.63;73.71
75231;BME280;63814;50.118;8.714;2022-10-26T08:49:38;100369.94;;;14.65;72.31
75231;BME280;63814;50.118;8.714;2022-10-26T08:52:10;100378.31;;;14.83;72.18
75231;BME280;63814;50.118;8.714;2022-10-26T08:54:43;100373.38;;;14.79;71.11
75231;BME280;63814;50.118;8.714;2022-10-26T08:57:17;100382.75;;;14.83;71.93
75231;BME280;63814;50.118;8.714;2022-10-26T08:59:49;100394.09;;;14.96;72.18
75231;BME280;63814;50.118;8.714;2022-10-26T09:02:18;100395.94;;;14.83;71.76
75231;BME280;63814;50.118;8.714;2022-10-26T09:04:45;100392.94;;;14.63;72.83
75231;BME280;63814;50.118;8.714;2022-10-26T09:07:19;100400.91;;;14.88;72.30
75231;BME280;63814;50.118;8.714;2022-10-26T09:09:58;100403.16;;;14.81;72.48
75231;BME280;63814;50.118;8.714;2022-10-26T09:12:32;100404.91;;;14.93;72.52
75231;BME280;63814;50.118;8.714;2022-10-26T09:15:13;100396.25;;;14.91;72.36
75231;BME280;63814;50.118;8.714;2022-10-26T09:17:48;100388.91;;;14.70;72.85
75231;BME280;63814;50.118;8.714;2022-10-26T09:20:38;100403.47;;;14.76;72.66
75231;BME280;63814;50.118;8.714;2022-10-26T09:23:17;100409.50;;;14.78;73.04
75231;BME280;63814;50.118;8.714;2022-10-26T09:25:53;100410.38;;;14.66;73.22
75231;BME280;63814;50.118;8.714;2022-10-26T09:28:23;100406.13;;;14.76;73.39
75231;BME280;63814;50.118;8.714;2022-10-26T09:30:58;100415.97;;;14.74;73.73
75231;BME280;63814;50.118;8.714;2022-10-26T09:33:24;100418.97;;;14.81;72.94
75231;BME280;63814;50.118;8.714;2022-10-26T09:35:56;100432.19;;;14.81;73.35
75231;BME280;63814;50.118;8.714;2022-10-26T09:38:28;100436.75;;;15.03;72.84
75231;BME280;63814;50.118;8.714;2022-10-26T09:41:00;100432.63;;;15.23;72.17
75231;BME280;63814;50.118;8.714;2022-10-26T09:43:32;100428.72;;;15.40;71.61
75231;BME280;63814;50.118;8.714;2022-10-26T09:46:01;100430.06;;;15.46;71.84
75231;BME280;63814;50.118;8.714;2022-10-26T09:48:32;100435.00;;;15.51;71.51
75231;BME280;63814;50.118;8.714;2022-10-26T09:51:01;100428.72;;;15.40;71.71
75231;BME280;63814;50.118;8.714;2022-10-26T09:53:28;100435.94;;;15.38;72.49
75231;BME280;63814;50.118;8.714;2022-10-26T09:56:00;100426.50;;;15.94;70.54
75231;BME280;63814;50.118;8.714;2022-10-26T09:58:31;100417.72;;;17.28;65.88
75231;BME280;63814;50.118;8.714;2022-10-26T10:01:00;100425.00;;;18.72;61.58
75231;BME280;63814;50.118;8.714;2022-10-26T10:03:29;100429.25;;;20.67;55.51
75231;BME280;63814;50.118;8.714;2022-10-26T10:06:14;100385.84;;;21.74;51.66
75231;BME280;63814;50.118;8.714;2022-10-26T10:08:41;100415.34;;;23.18;48.64
75231;BME280;63814;50.118;8.714;2022-10-26T10:11:11;100418.03;;;23.18;47.42
75231;BME280;63814;50.118;8.714;2022-10-26T10:13:39;100404.69;;;25.03;43.70
75231;BME280;63814;50.118;8.714;2022-10-26T10:16:10;100416.66;;;23.72;45.87
75231;BME280;63814;50.118;8.714;2022-10-26T10:18:38;100424.03;;;21.48;51.83
75231;BME280;63814;50.118;8.714;2022-10-26T10:21:05;100437.88;;;19.95;56.04
75231;BME280;63814;50.118;8.714;2022-10-26T10:23:34;100451.56;;;18.82;59.81
75231;BME280;63814;50.118;8.714;2022-10-26T10:26:04;100445.13;;;17.60;63.53
75231;BME280;63814;50.118;8.714;2022-10-26T10:28:33;100454.97;;;17.15;65.73
75231;BME280;63814;50.118;8.714;2022-10-26T10:31:01;100458.06;;;16.76;67.27
75231;BME280;63814;50.118;8.714;2022-10-26T10:33:32;100467.94;;;16.62;68.16
75231;BME280;63814;50.118;8.714;2022-10-26T10:36:00;100460.53;;;16.45;68.75
75231;BME280;63814;50.118;8.714;2022-10-26T10:38:27;100470.63;;;16.51;68.94
75231;BME280;63814;50.118;8.714;2022-10-26T10:40:55;100470.84;;;17.26;66.77
75231;BME280;63814;50.118;8.714;2022-10-26T10:43:24;100457.03;;;19.98;58.30
75231;BME280;63814;50.118;8.714;2022-10-26T10:45:54;100457.09;;;22.78;50.08
75231;BME280;63814;50.118;8.714;2022-10-26T10:48:24;100455.13;;;23.05;49.12
75231;BME280;63814;50.118;8.714;2022-10-26T10:50:54;100462.28;;;21.83;52.39
75231;BME280;63814;50.118;8.714;2022-10-26T10:53:25;100480.91;;;20.18;56.44
75231;BME280;63814;50.118;8.714;2022-10-26T10:56:11;100484.16;;;18.84;60.84
75231;BME280;63814;50.118;8.714;2022-10-26T10:58:45;100476.50;;;18.18;63.35
75231;BME280;63814;50.118;8.714;2022-10-26T11:01:20;100470.88;;;18.84;61.34
75231;BME280;63814;50.118;8.714;2022-10-26T11:04:10;100460.66;;;20.91;55.23
75231;BME280;63814;50.118;8.714;2022-10-26T11:06:41;100469.78;;;20.33;56.40
75231;BME280;63814;50.118;8.714;2022-10-26T11:09:10;100481.28;;;19.26;59.63
75231;BME280;63814;50.118;8.714;2022-10-26T11:11:43;100475.53;;;19.70;58.71
75231;BME280;63814;50.118;8.714;2022-10-26T11:14:13;100474.66;;;20.09;57.82
75231;BME280;63814;50.118;8.714;2022-10-26T11:16:47;100476.44;;;20.84;55.67
75231;BME280;63814;50.118;8.714;2022-10-26T11:19:18;100466.47;;;21.23;54.76
75231;BME280;63814;50.118;8.714;2022-10-26T11:21:50;100488.03;;;21.11;55.22
75231;BME280;63814;50.118;8.714;2022-10-26T11:24:22;100482.03;;;20.53;56.02
75231;BME280;63814;50.118;8.714;2022-10-26T11:26:52;100478.91;;;19.72;58.36
75231;BME280;63814;50.118;8.714;2022-10-26T11:29:26;100489.59;;;20.20;57.86
75231;BME280;63814;50.118;8.714;2022-10-26T11:32:02;100485.66;;;20.90;55.66
75231;BME280;63814;50.118;8.714;2022-10-26T11:34:36;100481.25;;;21.35;54.05
75231;BME280;63814;50.118;8.714;2022-10-26T11:37:09;100478.97;;;21.41;53.80
75231;BME280;63814;50.118;8.714;2022-10-26T11:39:44;100477.53;;;21.91;53.58
75231;BME280;63814;50.118;8.714;2022-10-26T11:42:19;100473.09;;;21.55;53.50
75231;BME280;63814;50.118;8.714;2022-10-26T11:44:50;100482.06;;;21.54;54.02
75231;BME280;63814;50.118;8.714;2022-10-26T11:47:23;100486.88;;;20.40;57.03
75231;BME280;63814;50.118;8.714;2022-10-26T11:49:57;100490.81;;;19.39;60.18
75231;BME280;63814;50.118;8.714;2022-10-26T11:52:31;100499.34;;;18.72;62.48
75231;BME280;63814;50.118;8.714;2022-10-26T11:54:59;100492.91;;;18.64;63.27
75231;BME280;63814;50.118;8.714;2022-10-26T11:57:26;100480.41;;;18.45;63.37
75231;BME280;63814;50.118;8.714;2022-10-26T11:59:58;100479.03;;;18.51;64.01
75231;BME280;63814;50.118;8.714;2022-10-26T12:02:28;100491.38;;;18.72;63.52
75231;BME280;63814;50.118;8.714;2022-10-26T12:04:58;100480.84;;;18.50;63.45
75231;BME280;63814;50.118;8.714;2022-10-26T12:07:29;100498.72;;;18.48;64.08
75231;BME280;63814;50.118;8.714;2022-10-26T12:09:57;100487.09;;;18.39;64.09
75231;BME280;63814;50.118;8.714;2022-10-26T12:12:32;100499.16;;;18.22;65.20
75231;BME280;63814;50.118;8.714;2022-10-26T12:15:12;100510.03;;;18.19;65.03
75231;BME280;63814;50.118;8.714;2022-10-26T12:17:46;100458.72;;;17.88;65.48
75231;BME280;63814;50.118;8.714;2022-10-26T12:20:38;100500.09;;;18.11;65.92
75231;BME280;63814;50.118;8.714;2022-10-26T12:23:14;100502.78;;;18.00;65.92
75231;BME280;63814;50.118;8.714;2022-10-26T12:25:41;100497.34;;;18.02;66.05
75231;BME280;63814;50.118;8.714;2022-10-26T12:28:37;100493.00;;;17.79;66.84
75231;BME280;63814;50.118;8.714;2022-10-26T12:34:10;100511.19;;;17.84;66.83
75231;BME280;63814;50.118;8.714;2022-10-26T12:36:47;100507.00;;;17.81;67.36
75231;BME280;63814;50.118;8.714;2022-10-26T12:39:27;100515.16;;;17.90;67.44
75231;BME280;63814;50.118;8.714;2022-10-26T12:41:56;100524.31;;;17.85;67.73
75231;BME280;63814;50.118;8.714;2022-10-26T12:44:32;100510.28;;;17.95;67.62
75231;BME280;63814;50.118;8.714;2022-10-26T12:46:59;100516.31;;;17.97;67.75
75231;BME280;63814;50.118;8.714;2022-10-26T12:55:27;100508.31;;;18.08;67.51
75231;BME280;63814;50.118;8.714;2022-10-26T12:58:19;100505.81;;;18.17;67.51
75231;BME280;63814;50.118;8.714;2022-10-26T13:01:09;100514.81;;;18.04;67.71
75231;BME280;63814;50.118;8.714;2022-10-26T13:03:47;100523.97;;;18.11;67.51
75231;BME280;63814;50.118;8.714;2022-10-26T13:06:27;100523.63;;;18.05;67.65
75231;BME280;63814;50.118;8.714;2022-10-26T13:09:06;100530.97;;;18.12;67.45
75231;BME280;63814;50.118;8.714;2022-10-26T13:11:36;100522.75;;;18.47;66.63
75231;BME280;63814;50.118;8.714;2022-10-26T13:14:13;100488.84;;;18.60;65.21
75231;BME280;63814;50.118;8.714;2022-10-26T13:16:44;100528.59;;;19.42;63.29
75231;BME280;63814;50.118;8.714;2022-10-26T13:19:22;100534.50;;;19.66;62.12
75231;BME280;63814;50.118;8.714;2022-10-26T13:21:50;100533.06;;;19.91;60.97